createdAt,value
2018-04-12T00:01:37.548Z,1003.9
2018-04-12T00:06:35.772Z,1003.9
2018-04-12T00:11:38.582Z,1003.7
2018-04-12T00:16:36.058Z,1003.7
2018-04-12T00:21:36.189Z,1003.7
2018-04-12T00:26:35.922Z,1003.7
2018-04-12T00:31:48.219Z,1003.6
2018-04-12T00:36:47.939Z,1003.6
2018-04-12T00:41:47.925Z,1003.6
2018-04-12T00:46:48.207Z,1003.6
2018-04-12T00:51:47.934Z,1003.7
2018-04-12T00:56:48.523Z,1003.5
2018-04-12T01:01:47.970Z,1003.4
2018-04-12T01:06:48.443Z,1003.4
2018-04-12T01:11:48.163Z,1003.4
2018-04-12T01:17:01.158Z,1003.6
2018-04-12T01:22:00.973Z,1003.5
2018-04-12T01:27:00.959Z,1003.5
2018-04-12T01:32:00.718Z,1003.5
2018-04-12T01:37:00.738Z,1003.5
2018-04-12T01:42:00.757Z,1003.5
2018-04-12T01:47:00.980Z,1003.3
2018-04-12T01:52:00.683Z,1003.3
2018-04-12T01:57:00.961Z,1003.2
2018-04-12T02:02:02.437Z,1003.3
2018-04-12T02:07:02.087Z,1003.3
2018-04-12T02:12:02.242Z,1003.2
2018-04-12T02:17:02.100Z,1003
2018-04-12T02:22:02.224Z,1003
2018-04-12T02:27:02.254Z,1003
2018-04-12T02:32:02.120Z,1003
2018-04-12T02:37:02.499Z,1003
2018-04-12T02:42:02.219Z,1003
2018-04-12T02:47:15.055Z,1003
2018-04-12T02:52:15.015Z,1002.8
2018-04-12T02:57:14.801Z,1002.7
2018-04-12T03:02:14.983Z,1002.6
2018-04-12T03:07:15.029Z,1002.7
2018-04-12T03:12:14.783Z,1002.8
2018-04-12T03:17:14.922Z,1002.7
2018-04-12T03:22:15.017Z,1002.7
2018-04-12T03:27:15.000Z,1002.8
2018-04-12T03:32:14.762Z,1002.9
2018-04-12T03:37:14.815Z,1002.9
2018-04-12T03:42:15.257Z,1002.8
2018-04-12T03:47:14.869Z,1003
2018-04-12T03:52:15.024Z,1003
2018-04-12T03:57:27.342Z,1002.8
2018-04-12T04:02:27.075Z,1002.9
2018-04-12T04:07:27.369Z,1003
2018-04-12T04:12:27.271Z,1002.8
2018-04-12T04:17:27.553Z,1002.9
2018-04-12T04:22:27.525Z,1002.9
2018-04-12T04:27:27.275Z,1002.8
2018-04-12T04:32:27.490Z,1002.7
2018-04-12T04:37:27.685Z,1002.8
2018-04-12T04:42:39.738Z,1002.7
2018-04-12T04:47:39.378Z,1002.5
2018-04-12T04:52:39.572Z,1002.4
2018-04-12T04:57:39.419Z,1002.4
2018-04-12T05:02:39.673Z,1002.3
2018-04-12T05:07:39.455Z,1002.4
2018-04-12T05:12:39.592Z,1002.5
2018-04-12T05:17:39.587Z,1002.8
2018-04-12T05:22:39.588Z,1002.9
2018-04-12T05:27:39.444Z,1002.8
2018-04-12T05:32:39.447Z,1002.8
2018-04-12T05:37:39.575Z,1002.7
2018-04-12T05:42:39.456Z,1003
2018-04-12T05:47:39.632Z,1003
2018-04-12T05:52:51.449Z,1003.2
2018-04-12T05:57:50.973Z,1003.1
2018-04-12T06:02:50.968Z,1003
2018-04-12T06:07:51.137Z,1002.9
2018-04-12T06:12:51.190Z,1002.9
2018-04-12T06:17:51.012Z,1003.1
2018-04-12T06:22:51.153Z,1003
2018-04-12T06:27:56.372Z,1002.8
2018-04-12T06:32:56.429Z,1002.6
2018-04-12T06:38:08.644Z,1002.5
2018-04-12T06:43:08.364Z,1002.2
2018-04-12T06:48:08.516Z,1002
2018-04-12T06:53:08.530Z,1001.7
2018-04-12T06:58:08.400Z,1001.7
2018-04-12T07:03:08.411Z,1001.8
2018-04-12T07:08:08.543Z,1001.7
2018-04-12T07:13:08.404Z,1001.7
2018-04-12T07:18:08.396Z,1001.4
2018-04-12T07:23:08.550Z,1001.6
2018-04-12T07:28:08.600Z,1001.6
2018-04-12T07:33:08.606Z,1001.4
2018-04-12T07:38:08.555Z,1001.6
2018-04-12T07:43:08.592Z,1001.7
2018-04-12T07:48:21.419Z,1001.7
2018-04-12T07:53:21.115Z,1001.7
2018-04-12T07:58:21.130Z,1002
2018-04-12T08:03:21.267Z,1002
2018-04-12T08:08:21.353Z,1001.9
2018-04-12T08:13:21.296Z,1001.9
2018-04-12T08:18:21.349Z,1001.9
2018-04-12T08:23:21.452Z,1002.1
2018-04-12T08:28:21.308Z,1002.1
2018-04-12T08:33:33.587Z,1002.1
2018-04-12T08:38:33.532Z,1002.3
2018-04-12T08:43:33.439Z,1002.3
2018-04-12T08:48:33.515Z,1002.2
2018-04-12T08:53:33.327Z,1002.3
2018-04-12T08:58:34.480Z,1002.4
2018-04-12T09:03:33.562Z,1002.4
2018-04-12T09:08:34.662Z,1002.3
2018-04-12T09:13:34.602Z,1002.2
2018-04-12T09:18:47.814Z,1002.3
2018-04-12T09:23:47.647Z,1002.4
2018-04-12T09:28:47.709Z,1002.3
2018-04-12T09:33:47.762Z,1002.3
2018-04-12T09:38:47.500Z,1002.3
2018-04-12T09:43:47.712Z,1002.4
2018-04-12T09:48:47.725Z,1002.5
2018-04-12T09:53:47.496Z,1002.4
2018-04-12T09:58:47.697Z,1002.5
2018-04-12T10:03:59.819Z,1002.3
2018-04-12T10:08:59.800Z,1002.3
2018-04-12T10:13:59.721Z,1002.2
2018-04-12T10:18:59.705Z,1002.2
2018-04-12T10:23:59.759Z,1002.3
2018-04-12T10:28:59.538Z,1002.4
2018-04-12T10:33:59.706Z,1002.1
2018-04-12T10:38:59.777Z,1002.1
2018-04-12T10:43:59.771Z,1002
2018-04-12T10:49:13.668Z,1002
2018-04-12T10:54:13.324Z,1002
2018-04-12T10:59:13.478Z,1001.9
2018-04-12T11:04:13.397Z,1001.9
2018-04-12T11:09:13.380Z,1002
2018-04-12T11:14:13.388Z,1001.9
2018-04-12T11:19:13.537Z,1001.9
2018-04-12T11:24:19.178Z,1001.8
2018-04-12T11:29:18.837Z,1001.7
2018-04-12T11:34:31.946Z,1001.6
2018-04-12T11:39:31.724Z,1001.5
2018-04-12T11:44:31.619Z,1001.6
2018-04-12T11:49:31.513Z,1001.4
2018-04-12T11:54:31.487Z,1001.5
2018-04-12T11:59:31.483Z,1001.6
2018-04-12T12:04:31.488Z,1001.6
2018-04-12T12:09:31.524Z,1001.4
2018-04-12T12:14:31.504Z,1001.5
2018-04-12T12:19:43.301Z,1001.7
2018-04-12T12:24:43.179Z,1001.6
2018-04-12T12:29:43.190Z,1001.7
2018-04-12T12:34:43.258Z,1001.7
2018-04-12T12:39:43.139Z,1001.8
2018-04-12T12:44:43.181Z,1001.8
2018-04-12T12:49:43.069Z,1001.8
2018-04-12T12:54:43.325Z,1001.9
2018-04-12T12:59:43.073Z,1001.8
2018-04-12T13:04:56.408Z,1001.7
2018-04-12T13:09:56.676Z,1001.7
2018-04-12T13:14:56.329Z,1001.7
2018-04-12T13:19:56.319Z,1001.6
2018-04-12T13:24:56.321Z,1001.5
2018-04-12T13:29:56.175Z,1001.5
2018-04-12T13:34:56.307Z,1001.6
2018-04-12T13:40:00.572Z,1001.6
2018-04-12T13:45:00.555Z,1001.7
2018-04-12T13:50:13.116Z,1001.7
2018-04-12T13:55:13.265Z,1001.9
2018-04-12T14:00:12.817Z,1001.8
2018-04-12T14:05:13.056Z,1001.7
2018-04-12T14:10:13.099Z,1001.8
2018-04-12T14:15:12.861Z,1001.8
2018-04-12T14:20:13.044Z,1001.8
2018-04-12T14:25:12.853Z,1001.8
2018-04-12T14:30:12.856Z,1001.9
2018-04-12T14:35:12.977Z,1002
2018-04-12T14:40:12.853Z,1001.8
2018-04-12T14:45:12.882Z,1001.9
2018-04-12T14:50:15.757Z,1001.9
2018-04-12T14:55:12.846Z,1002.2
2018-04-12T15:00:25.274Z,1002.2
2018-04-12T15:05:23.892Z,1002.2
2018-04-12T15:10:23.680Z,1002.3
2018-04-12T15:15:23.843Z,1002.3
2018-04-12T15:20:23.709Z,1002.3
2018-04-12T15:25:23.799Z,1002.4
2018-04-12T15:30:23.837Z,1002.5
2018-04-12T15:35:24.947Z,1002.5
2018-04-12T15:40:24.727Z,1002.5
2018-04-12T15:45:38.408Z,1002.4
2018-04-12T15:50:38.171Z,1002.4
2018-04-12T15:55:38.140Z,1002.4
2018-04-12T16:00:38.168Z,1002.5
2018-04-12T16:05:38.164Z,1002.5
2018-04-12T16:10:38.169Z,1002.6
2018-04-12T16:15:38.152Z,1002.5
2018-04-12T16:20:43.034Z,1002.4
2018-04-12T16:25:42.783Z,1002.6
2018-04-12T16:30:54.663Z,1002.8
2018-04-12T16:35:54.447Z,1002.7
2018-04-12T16:40:54.400Z,1002.8
2018-04-12T16:45:54.414Z,1002.7
2018-04-12T16:50:54.416Z,1002.8
2018-04-12T16:55:54.449Z,1002.8
2018-04-12T17:00:54.446Z,1002.8
2018-04-12T17:05:58.090Z,1002.9
2018-04-12T17:10:57.805Z,1002.9
2018-04-12T17:16:07.919Z,1002.9
2018-04-12T17:21:07.542Z,1003.2
2018-04-12T17:26:07.539Z,1003.1
2018-04-12T17:31:07.547Z,1003.2
2018-04-12T17:36:07.581Z,1003.1
2018-04-12T17:41:07.725Z,1003
2018-04-12T17:46:07.549Z,1003.2
2018-04-12T17:51:08.276Z,1003.1
2018-04-12T17:56:08.026Z,1003.2
2018-04-12T18:01:20.280Z,1003.5
2018-04-12T18:06:20.057Z,1003.5
2018-04-12T18:11:20.044Z,1003.5
2018-04-12T18:16:20.162Z,1003.5
2018-04-12T18:21:19.996Z,1003.5
2018-04-12T18:26:20.224Z,1003.5
2018-04-12T18:31:20.009Z,1003.5
2018-04-12T18:36:20.021Z,1003.5
2018-04-12T18:41:20.039Z,1003.5
2018-04-12T18:46:31.422Z,1003.4
2018-04-12T18:51:31.347Z,1003.6
2018-04-12T18:56:31.648Z,1003.7
2018-04-12T19:01:31.166Z,1003.8
2018-04-12T19:06:31.227Z,1003.8
2018-04-12T19:11:31.181Z,1003.8
2018-04-12T19:16:33.554Z,1004
2018-04-12T19:21:31.450Z,1004
2018-04-12T19:26:32.158Z,1004.1
2018-04-12T19:31:31.343Z,1004.1
2018-04-12T19:36:31.332Z,1004
2018-04-12T19:41:31.989Z,1004
2018-04-12T19:46:35.702Z,1004
2018-04-12T19:51:35.522Z,1004
2018-04-12T19:56:46.272Z,1003.9
2018-04-12T20:01:46.042Z,1003.8
2018-04-12T20:06:46.223Z,1003.8
2018-04-12T20:11:46.024Z,1003.7
2018-04-12T20:16:46.010Z,1003.8
2018-04-12T20:21:46.237Z,1003.8
2018-04-12T20:26:46.015Z,1003.8
2018-04-12T20:31:48.974Z,1003.9
2018-04-12T20:36:47.449Z,1003.8
2018-04-12T20:41:59.894Z,1003.7
2018-04-12T20:46:59.565Z,1003.7
2018-04-12T20:51:59.584Z,1003.8
2018-04-12T20:56:59.769Z,1003.7
2018-04-12T21:01:59.815Z,1003.6
2018-04-12T21:07:00.475Z,1003.3
2018-04-12T21:12:00.181Z,1003.3
2018-04-12T21:17:02.924Z,1003.4
2018-04-12T21:22:00.183Z,1003.4
2018-04-12T21:27:00.390Z,1003.4
2018-04-12T21:32:00.408Z,1003.4
2018-04-12T21:37:02.819Z,1003.3
2018-04-12T21:42:02.039Z,1003.2
2018-04-12T21:47:01.972Z,1003.2
2018-04-12T21:52:14.237Z,1003.2
2018-04-12T21:57:14.215Z,1003.1
2018-04-12T22:02:13.969Z,1003.2
2018-04-12T22:07:14.153Z,1003.1
2018-04-12T22:12:14.241Z,1003.2
2018-04-12T22:17:14.129Z,1003.2
2018-04-12T22:22:14.149Z,1003
2018-04-12T22:27:13.982Z,1003.1
2018-04-12T22:32:14.189Z,1003.1
2018-04-12T22:37:26.976Z,1003.1
2018-04-12T22:42:26.908Z,1003.1
2018-04-12T22:47:26.823Z,1003.1
2018-04-12T22:52:26.884Z,1003.1
2018-04-12T22:57:26.715Z,1003.1
2018-04-12T23:02:26.641Z,1003
2018-04-12T23:07:26.688Z,1002.9
2018-04-12T23:12:26.660Z,1002.9
2018-04-12T23:17:26.809Z,1003
2018-04-12T23:22:26.871Z,1003.2
2018-04-12T23:27:26.884Z,1003.3
2018-04-12T23:32:26.935Z,1003.2
2018-04-12T23:37:29.232Z,1003.1
2018-04-12T23:42:29.147Z,1003
2018-04-12T23:47:39.388Z,1003
2018-04-12T23:52:39.258Z,1002.9
2018-04-12T23:57:39.272Z,1002.9
